createdAt,value
2018-09-10T00:02:17.313Z,78.90
2018-09-10T00:07:20.379Z,79.60
2018-09-10T00:12:23.464Z,80.20
2018-09-10T00:17:26.520Z,80.10
2018-09-10T00:22:29.589Z,79.80
2018-09-10T00:27:32.652Z,80.50
2018-09-10T00:32:35.712Z,79.80
2018-09-10T00:37:38.772Z,80.40
2018-09-10T00:42:41.837Z,80.30
2018-09-10T00:47:44.917Z,82.30
2018-09-10T00:52:47.975Z,81.40
2018-09-10T00:57:51.064Z,81.20
2018-09-10T01:02:54.125Z,82.00
2018-09-10T01:07:57.196Z,81.40
2018-09-10T01:29:24.501Z,83.40
2018-09-10T01:34:33.096Z,82.50
2018-09-10T01:39:36.156Z,82.90
2018-09-10T01:44:39.224Z,82.70
2018-09-10T01:49:42.268Z,83.30
2018-09-10T01:54:45.308Z,84.00
2018-09-10T01:59:48.363Z,85.70
2018-09-10T02:04:51.429Z,84.60
2018-09-10T02:09:54.472Z,84.90
2018-09-10T02:14:57.519Z,84.10
2018-09-10T02:20:00.573Z,85.40
2018-09-10T02:25:03.644Z,86.00
2018-09-10T02:30:07.070Z,86.60
2018-09-10T02:35:10.133Z,86.90
2018-09-10T02:40:13.180Z,86.00
2018-09-10T02:45:16.242Z,86.00
2018-09-10T02:50:19.394Z,84.80
2018-09-10T02:55:22.439Z,86.90
2018-09-10T03:00:25.908Z,87.50
2018-09-10T03:05:28.976Z,87.30
2018-09-10T03:10:32.027Z,87.50
2018-09-10T03:15:35.096Z,87.30
2018-09-10T03:20:38.144Z,86.80
2018-09-10T03:25:41.224Z,88.20
2018-09-10T03:30:44.294Z,89.00
2018-09-10T03:35:47.369Z,89.10
2018-09-10T03:40:50.421Z,88.20
2018-09-10T03:45:53.470Z,89.30
2018-09-10T03:50:56.526Z,89.00
2018-09-10T03:55:59.605Z,90.00
2018-09-10T04:01:02.685Z,89.40
2018-09-10T04:06:05.866Z,89.90
2018-09-10T04:11:09.024Z,89.70
2018-09-10T04:16:12.097Z,89.70
2018-09-10T04:21:15.197Z,90.20
2018-09-10T04:26:18.257Z,90.00
2018-09-10T04:31:21.329Z,90.60
2018-09-10T04:36:24.406Z,90.30
2018-09-10T04:41:32.810Z,90.20
2018-09-10T04:46:36.488Z,90.50
2018-09-10T04:51:39.544Z,90.70
2018-09-10T05:13:06.296Z,90.20
2018-09-10T05:18:09.368Z,90.30
2018-09-10T05:23:12.467Z,90.40
2018-09-10T05:28:15.603Z,90.70
2018-09-10T05:33:18.651Z,90.80
2018-09-10T05:38:21.743Z,90.80
2018-09-10T05:43:24.816Z,91.10
2018-09-10T05:48:27.917Z,91.40
2018-09-10T05:53:30.981Z,92.70
2018-09-10T05:58:34.059Z,92.00
2018-09-10T06:03:37.135Z,92.70
2018-09-10T06:08:40.265Z,92.20
2018-09-10T06:13:43.328Z,92.00
2018-09-10T06:18:46.421Z,91.90
2018-09-10T06:23:49.514Z,92.50
2018-09-10T06:28:52.650Z,92.50
2018-09-10T06:34:02.311Z,92.60
2018-09-10T06:39:08.213Z,93.00
2018-09-10T06:44:11.294Z,92.70
2018-09-10T06:49:14.371Z,93.40
2018-09-10T06:54:17.464Z,93.70
2018-09-10T06:59:20.528Z,93.10
2018-09-10T07:04:23.599Z,93.00
2018-09-10T07:25:51.149Z,92.50
2018-09-10T07:30:54.225Z,92.90
2018-09-10T07:35:57.297Z,92.80
2018-09-10T07:41:00.381Z,92.40
2018-09-10T07:46:03.452Z,92.20
2018-09-10T07:51:06.508Z,92.30
2018-09-10T08:12:34.101Z,91.60
2018-09-10T08:17:37.164Z,90.40
2018-09-10T08:22:40.224Z,90.00
2018-09-10T08:27:43.271Z,89.40
2018-09-10T08:32:46.336Z,88.30
2018-09-10T08:37:49.396Z,87.50
2018-09-10T08:42:52.464Z,86.80
2018-09-10T08:47:55.519Z,84.50
2018-09-10T08:52:58.584Z,82.50
2018-09-10T08:58:01.652Z,82.80
2018-09-10T09:03:04.989Z,81.80
2018-09-10T09:08:08.102Z,78.60
2018-09-10T09:13:11.136Z,79.00
2018-09-10T09:18:14.182Z,76.60
2018-09-10T09:23:17.432Z,76.20
2018-09-10T09:28:20.610Z,74.90
2018-09-10T09:33:23.678Z,75.10
2018-09-10T09:38:32.112Z,74.00
2018-09-10T09:43:40.617Z,75.40
2018-09-10T09:48:43.680Z,74.50
2018-09-10T09:53:46.731Z,74.80
2018-09-10T09:58:50.200Z,73.40
2018-09-10T10:03:55.045Z,72.20
2018-09-10T10:08:58.107Z,73.00
2018-09-10T10:14:07.560Z,72.60
2018-09-10T10:19:10.603Z,72.40
2018-09-10T10:24:13.672Z,70.30
2018-09-10T10:29:16.733Z,70.10
2018-09-10T10:34:19.800Z,68.80
2018-09-10T10:55:48.093Z,62.70
2018-09-10T11:00:51.181Z,60.60
2018-09-10T11:05:54.246Z,62.20
2018-09-10T11:10:57.332Z,61.50
2018-09-10T11:16:00.410Z,60.40
2018-09-10T11:21:03.507Z,59.30
2018-09-10T11:26:06.614Z,58.60
2018-09-10T11:31:09.681Z,57.90
2018-09-10T11:36:12.752Z,55.80
2018-09-10T11:41:15.818Z,55.20
2018-09-10T11:46:18.885Z,56.00
2018-09-10T11:51:22.030Z,54.70
2018-09-10T11:56:25.105Z,53.10
2018-09-10T12:17:53.424Z,50.10
2018-09-10T12:39:21.747Z,49.80
2018-09-10T12:44:24.762Z,49.10
2018-09-10T13:05:51.750Z,50.60
2018-09-10T13:10:54.832Z,50.50
2018-09-10T13:15:57.886Z,51.10
2018-09-10T13:21:00.952Z,50.90
2018-09-10T13:26:04.019Z,49.70
2018-09-10T13:31:07.108Z,50.20
2018-09-10T13:36:10.196Z,51.10
2018-09-10T13:57:37.873Z,49.70
2018-09-10T14:19:05.763Z,50.40
2018-09-10T14:40:33.239Z,49.00
2018-09-10T14:45:36.316Z,50.50
2018-09-10T14:50:39.383Z,50.50
2018-09-10T14:55:42.462Z,50.30
2018-09-10T15:00:45.531Z,49.90
2018-09-10T15:05:48.608Z,50.80
2018-09-10T15:10:51.665Z,51.60
2018-09-10T15:32:19.054Z,54.30
2018-09-10T15:37:22.138Z,55.00
2018-09-10T15:42:25.194Z,55.20
2018-09-10T16:03:53.286Z,56.40
2018-09-10T16:08:56.401Z,56.80
2018-09-10T16:13:59.473Z,57.30
2018-09-10T16:35:27.139Z,58.90
2018-09-10T16:56:55.467Z,58.80
2018-09-10T17:18:22.959Z,59.80
2018-09-10T17:23:26.024Z,60.20
2018-09-10T17:28:29.096Z,60.60
2018-09-10T17:33:32.178Z,61.10
2018-09-10T17:55:00.659Z,62.50
2018-09-10T18:00:03.763Z,62.90
2018-09-10T18:05:07.076Z,63.00
2018-09-10T18:10:10.152Z,63.20
2018-09-10T18:15:13.208Z,63.80
2018-09-10T18:20:16.264Z,64.80
2018-09-10T18:25:19.329Z,64.50
2018-09-10T18:30:22.401Z,65.00
2018-09-10T18:35:25.457Z,64.90
2018-09-10T18:40:28.514Z,65.40
2018-09-10T19:01:56.180Z,66.50
2018-09-10T19:06:59.232Z,66.90
2018-09-10T19:12:02.317Z,66.80
2018-09-10T19:33:30.185Z,68.20
2018-09-10T19:54:57.717Z,68.40
2018-09-10T20:00:00.785Z,68.40
2018-09-10T20:21:28.868Z,69.30
2018-09-10T20:26:31.953Z,69.60
2018-09-10T20:31:35.004Z,70.70
2018-09-10T20:36:38.801Z,72.20
2018-09-10T20:41:41.864Z,73.20
2018-09-10T20:46:44.921Z,73.80
2018-09-10T20:51:47.988Z,73.80
2018-09-10T20:56:51.074Z,74.30
2018-09-10T21:01:54.132Z,73.70
2018-09-10T21:06:57.212Z,74.40
2018-09-10T21:12:00.282Z,74.20
2018-09-10T21:17:03.337Z,74.70
2018-09-10T21:22:06.471Z,75.30
2018-09-10T21:27:09.511Z,75.60
2018-09-10T21:32:12.560Z,76.30
2018-09-10T21:37:15.621Z,76.60
2018-09-10T21:42:18.677Z,77.10
2018-09-10T21:47:21.738Z,77.60
2018-09-10T21:52:24.835Z,77.50
2018-09-10T21:57:27.892Z,78.60
2018-09-10T22:02:30.968Z,78.90
2018-09-10T22:07:34.020Z,78.80
2018-09-10T22:12:37.084Z,79.50
2018-09-10T22:17:40.138Z,80.00
2018-09-10T22:22:43.196Z,81.30
2018-09-10T22:27:46.246Z,81.50
2018-09-10T22:49:13.457Z,82.70
2018-09-10T22:54:16.523Z,82.90
2018-09-10T22:59:19.577Z,84.30
2018-09-10T23:04:22.634Z,84.20
2018-09-10T23:09:25.692Z,85.20
2018-09-10T23:14:28.767Z,84.40
2018-09-10T23:19:31.825Z,85.00
2018-09-10T23:24:34.884Z,85.80
2018-09-10T23:29:37.943Z,85.60
2018-09-10T23:34:41.010Z,86.40
2018-09-10T23:39:44.054Z,86.50
2018-09-10T23:44:47.116Z,86.60
2018-09-10T23:49:50.168Z,87.20
2018-09-10T23:54:53.234Z,87.70
2018-09-10T23:59:56.290Z,87.80
